Terminal Aerodrome Forecast
Issued by NWS Topeka, KS

Home | Current Version | Previous Version | Text Only | Print | Product List | Glossary Off
Versions: 1 2 3 4 5 6 7 8 9 10 11 12 13 14 15 16 17 18 19 20 21

000
FTUS43 KTOP 201000 AAD
TAFTOP
TAF AMD
KTOP 201000Z 2010/2106 36015G25KT P6SM VCTS OVC040CB
      TEMPO 2010/2012 2SM TSRA BR BKN025CB
     FM201400 17009KT P6SM SCT200=

USA.gov is the U.S. government's official web portal to all federal, state and local government web resources and services.